Time;durP1;ratioP1;P1;durP2;ratioP2;P2;SDS_P1;SDS_P2;PMS_P1;PMS_P2;Temp;Humidity;BMP_temperature;BMP_pressure;BME280_temperature;BME280_humidity;BME280_pressure;Samples;Min_cycle;Max_cycle;Signal;HPM_P1;HPM_P2
2022/11/27 00:01:26;;;;;;;23.63;7.00;;;;;;;4.61;100.00;102348.63;5104378;28;20420;-72
2022/11/27 00:03:53;;;;;;;23.77;6.88;;;;;;;4.60;100.00;102337.28;5103485;28;20051;-74
2022/11/27 00:06:21;;;;;;;22.38;6.68;;;;;;;4.57;100.00;102351.91;5105612;28;20038;-72
2022/11/27 00:08:47;;;;;;;24.02;7.00;;;;;;;4.56;100.00;102348.41;5102311;28;20024;-72
2022/11/27 00:11:16;;;;;;;24.67;7.78;;;;;;;4.54;100.00;102350.94;5105567;28;20016;-70
2022/11/27 00:13:42;;;;;;;22.85;6.82;;;;;;;4.51;100.00;102342.94;5098115;28;20479;-71
2022/11/27 00:16:08;;;;;;;25.05;6.72;;;;;;;4.48;100.00;102342.72;5105102;28;20057;-72
2022/11/27 00:18:34;;;;;;;22.88;6.80;;;;;;;4.50;100.00;102346.34;5102755;28;20031;-71
2022/11/27 00:21:07;;;;;;;25.42;7.05;;;;;;;4.49;100.00;102338.41;5104130;28;20028;-72
2022/11/27 00:23:35;;;;;;;24.00;7.18;;;;;;;4.44;100.00;102332.03;5102795;28;20020;-72
2022/11/27 00:26:01;;;;;;;22.55;6.97;;;;;;;4.41;100.00;102330.13;5103984;28;20032;-72
2022/11/27 00:28:27;;;;;;;24.67;7.15;;;;;;;4.38;100.00;102322.13;5103823;28;20027;-72
2022/11/27 00:30:52;;;;;;;23.02;6.88;;;;;;;4.36;100.00;102315.91;5102731;28;20111;-72
2022/11/27 00:33:17;;;;;;;23.33;7.15;;;;;;;4.33;100.00;102310.53;5104843;28;20110;-72
2022/11/27 00:35:43;;;;;;;23.63;7.20;;;;;;;4.31;100.00;102310.44;5101757;28;20056;-72
2022/11/27 00:38:08;;;;;;;24.15;7.57;;;;;;;4.31;100.00;102312.13;5104908;28;20401;-71
2022/11/27 00:40:34;;;;;;;24.02;7.53;;;;;;;4.31;100.00;102314.75;5102420;28;20032;-73
2022/11/27 00:43:00;;;;;;;24.38;7.07;;;;;;;4.29;100.00;102308.53;5103937;28;20028;-73
2022/11/27 00:45:26;;;;;;;24.08;7.05;;;;;;;4.24;100.00;102313.53;5103635;28;20088;-72
2022/11/27 00:47:51;;;;;;;24.30;7.35;;;;;;;4.18;100.00;102311.50;5102274;28;20032;-71
2022/11/27 00:50:17;;;;;;;25.35;7.43;;;;;;;4.18;100.00;102316.72;5104854;28;20022;-72
2022/11/27 00:52:42;;;;;;;22.88;7.18;;;;;;;4.17;100.00;102304.44;5101353;28;20032;-72
2022/11/27 00:55:08;;;;;;;24.92;7.53;;;;;;;4.16;100.00;102300.03;5104590;28;20043;-77
2022/11/27 00:57:33;;;;;;;23.50;7.32;;;;;;;4.18;100.00;102300.13;5101263;28;20027;-77
2022/11/27 00:59:58;;;;;;;24.88;7.55;;;;;;;4.22;100.00;102295.94;5103124;28;20031;-77
2022/11/27 01:02:24;;;;;;;23.30;7.25;;;;;;;4.23;100.00;102292.53;5103980;28;20020;-77
2022/11/27 01:04:49;;;;;;;24.83;7.35;;;;;;;4.19;100.00;102287.13;5102162;28;20402;-77
2022/11/27 01:07:15;;;;;;;24.23;7.20;;;;;;;4.17;100.00;102280.88;5104758;28;20023;-77
2022/11/27 01:09:40;;;;;;;24.23;7.30;;;;;;;4.18;100.00;102285.31;5101418;28;20498;-76
2022/11/27 01:12:06;;;;;;;23.30;7.00;;;;;;;4.15;100.00;102274.69;5103936;28;20043;-77
2022/11/27 01:14:32;;;;;;;25.17;7.35;;;;;;;4.15;100.00;102265.91;5102198;28;20047;-78
2022/11/27 01:16:58;;;;;;;24.02;6.97;;;;;;;4.12;100.00;102256.19;5103041;28;20039;-77
2022/11/27 01:19:23;;;;;;;25.73;7.50;;;;;;;4.09;100.00;102257.75;5103365;28;20521;-74
2022/11/27 01:21:49;;;;;;;25.52;7.20;;;;;;;4.05;100.00;102255.78;5101405;28;20111;-75
2022/11/27 01:24:15;;;;;;;25.42;7.38;;;;;;;4.00;100.00;102263.38;5103455;28;20486;-78
2022/11/27 01:26:41;;;;;;;25.35;7.47;;;;;;;3.96;100.00;102272.81;5101143;28;20024;-76
2022/11/27 01:29:06;;;;;;;25.00;8.18;;;;;;;4.01;100.00;102270.44;5104085;28;20076;-77
2022/11/27 01:31:32;;;;;;;24.88;7.80;;;;;;;4.03;100.00;102271.38;5104514;28;20114;-75
2022/11/27 01:34:03;;;;;;;24.60;7.75;;;;;;;4.05;100.00;102271.47;5106740;28;20040;-76
2022/11/27 01:36:30;;;;;;;26.33;8.13;;;;;;;4.07;100.00;102260.28;5106771;28;20031;-74
2022/11/27 01:38:55;;;;;;;25.55;8.10;;;;;;;4.07;100.00;102255.03;5106583;28;20024;-77
2022/11/27 01:41:30;;;;;;;23.65;7.68;;;;;;;4.12;100.00;102236.97;5106565;28;20047;-77
2022/11/27 01:44:00;;;;;;;24.42;7.70;;;;;;;4.12;100.00;102234.34;5106279;28;20028;-77
2022/11/27 01:46:41;;;;;;;27.45;8.77;;;;;;;4.12;100.00;102235.25;5107548;28;20020;-74
2022/11/27 01:49:09;;;;;;;25.90;8.20;;;;;;;4.15;100.00;102234.50;5107931;28;20031;-74
2022/11/27 01:51:47;;;;;;;23.50;7.78;;;;;;;4.18;100.00;102237.31;5104457;28;20081;-78
2022/11/27 01:54:14;;;;;;;22.63;7.53;;;;;;;4.19;100.00;102231.22;5100751;28;20032;-76
2022/11/27 01:56:44;;;;;;;26.65;7.85;;;;;;;4.19;100.00;102207.66;5108366;28;20487;-71
2022/11/27 01:59:10;;;;;;;25.40;8.32;;;;;;;4.18;100.00;102206.78;5103677;28;20023;-71
2022/11/27 02:01:36;;;;;;;25.30;8.30;;;;;;;4.16;100.00;102203.16;5107244;28;20043;-71
2022/11/27 02:04:01;;;;;;;25.40;8.40;;;;;;;4.12;100.00;102190.78;5105927;28;20027;-71
2022/11/27 02:06:27;;;;;;;24.70;8.27;;;;;;;4.11;100.00;102199.44;5106191;28;20052;-71
2022/11/27 02:08:54;;;;;;;24.92;8.25;;;;;;;4.06;100.00;102185.19;5107091;28;20027;-71
2022/11/27 02:11:46;;;;;;;23.42;8.20;;;;;;;3.99;100.00;102181.38;5104784;28;20020;-71
2022/11/27 02:14:40;;;;;;;26.27;8.45;;;;;;;3.94;100.00;102185.44;5099942;28;20127;-72
2022/11/27 02:17:14;;;;;;;26.90;8.95;;;;;;;3.90;100.00;102169.50;5106345;28;20032;-73
2022/11/27 02:19:54;;;;;;;25.08;8.77;;;;;;;3.80;100.00;102171.66;5104442;28;20107;-72
2022/11/27 02:22:57;;;;;;;25.27;9.00;;;;;;;3.78;100.00;102170.66;5101443;28;20069;-72
2022/11/27 02:25:30;;;;;;;26.95;9.20;;;;;;;3.73;100.00;102164.28;5068287;28;20059;-72
2022/11/27 02:28:28;;;;;;;23.58;8.38;;;;;;;3.73;100.00;102160.75;5106299;28;20019;-72
2022/11/27 02:31:02;;;;;;;25.35;8.93;;;;;;;3.67;100.00;102156.13;5102676;28;20501;-71
2022/11/27 02:33:30;;;;;;;26.27;9.30;;;;;;;3.66;100.00;102157.81;5105802;28;20024;-72
2022/11/27 02:36:06;;;;;;;24.45;8.82;;;;;;;3.64;100.00;102155.94;5105327;28;20103;-72
2022/11/27 02:38:48;;;;;;;27.55;9.07;;;;;;;3.67;100.00;102153.50;5105386;28;20024;-73
2022/11/27 02:41:21;;;;;;;24.83;8.90;;;;;;;3.70;100.00;102147.53;5099463;28;20024;-71
2022/11/27 02:43:49;;;;;;;24.05;8.45;;;;;;;3.70;100.00;102143.22;5099788;28;20051;-71
2022/11/27 02:46:16;;;;;;;25.10;8.80;;;;;;;3.73;100.00;102147.69;5098673;28;20024;-71
2022/11/27 02:48:46;;;;;;;26.63;8.88;;;;;;;3.71;100.00;102144.09;5107337;28;20416;-72
2022/11/27 02:51:13;;;;;;;25.23;8.82;;;;;;;3.72;100.00;102141.56;5103661;28;20020;-72
2022/11/27 02:53:47;;;;;;;25.95;9.10;;;;;;;3.75;100.00;102146.06;5106686;28;20374;-72
2022/11/27 02:56:17;;;;;;;25.50;8.43;;;;;;;3.79;100.00;102150.66;5099463;28;20028;-72
2022/11/27 02:58:45;;;;;;;25.23;8.63;;;;;;;3.78;100.00;102152.34;5099689;28;20073;-71
2022/11/27 03:01:11;;;;;;;24.15;8.10;;;;;;;3.78;100.00;102162.81;5106551;28;20032;-72
2022/11/27 03:03:41;;;;;;;24.98;8.25;;;;;;;3.82;100.00;102150.81;5104158;28;20078;-72
2022/11/27 03:06:17;;;;;;;23.70;7.93;;;;;;;3.89;100.00;102159.84;5106311;28;20470;-71
2022/11/27 03:08:53;;;;;;;22.27;7.80;;;;;;;3.91;100.00;102168.69;5099349;28;20028;-71
2022/11/27 03:11:20;;;;;;;24.02;7.57;;;;;;;3.92;100.00;102160.94;5100235;28;20016;-72
2022/11/27 03:13:53;;;;;;;23.00;7.63;;;;;;;3.98;100.00;102156.00;5105167;28;20093;-71
2022/11/27 03:16:33;;;;;;;24.98;7.57;;;;;;;4.02;100.00;102151.84;5100092;28;20120;-70
2022/11/27 03:19:41;;;;;;;22.52;7.20;;;;;;;4.03;100.00;102148.41;5105275;28;20122;-72
2022/11/27 03:22:07;;;;;;;23.63;7.55;;;;;;;4.02;100.00;102138.78;5095704;28;20108;-71
2022/11/27 03:24:34;;;;;;;23.92;7.30;;;;;;;4.04;100.00;102137.13;5104452;28;20466;-71
2022/11/27 03:27:01;;;;;;;22.05;7.10;;;;;;;4.05;100.00;102140.63;5105056;28;20414;-72
2022/11/27 03:29:34;;;;;;;20.45;6.85;;;;;;;4.07;100.00;102132.03;5105150;28;20045;-72
2022/11/27 03:31:59;;;;;;;;;;;;;;;4.09;100.00;102138.28;5104968;28;20028;-71
2022/11/27 03:34:25;;;;;;;22.48;7.13;;;;;;;4.08;100.00;102139.06;5105366;28;19916;-72
2022/11/27 03:36:50;;;;;;;23.35;6.97;;;;;;;4.10;100.00;102139.16;5103321;28;20035;-71
2022/11/27 03:39:15;;;;;;;22.10;6.85;;;;;;;4.10;100.00;102142.66;5106310;28;20055;-71
2022/11/27 03:42:09;;;;;;;21.85;7.00;;;;;;;4.11;100.00;102128.75;5102987;28;20441;-71
2022/11/27 03:44:59;;;;;;;22.33;6.78;;;;;;;4.09;100.00;102117.34;5095421;28;20102;-72
2022/11/27 03:47:30;;;;;;;21.27;6.32;;;;;;;4.09;100.00;102101.63;5101377;28;20032;-71
2022/11/27 03:50:27;;;;;;;20.98;6.32;;;;;;;4.08;100.00;102106.75;5105063;28;20318;-71
2022/11/27 03:52:52;;;;;;;22.10;6.50;;;;;;;4.06;100.00;102106.69;5097198;28;20040;-71
2022/11/27 03:55:27;;;;;;;21.25;6.53;;;;;;;4.11;100.00;102105.22;5105783;28;20035;-73
2022/11/27 03:58:01;;;;;;;20.42;6.22;;;;;;;4.13;100.00;102111.41;5102893;28;20024;-71
2022/11/27 04:00:38;;;;;;;21.02;6.10;;;;;;;4.12;100.00;102107.00;5104401;28;21482;-72
2022/11/27 04:03:04;;;;;;;20.10;6.00;;;;;;;4.16;100.00;102105.44;5104643;28;20020;-71
2022/11/27 04:05:30;;;;;;;19.65;5.82;;;;;;;4.19;100.00;102102.97;5104127;28;20132;-72
2022/11/27 04:07:55;;;;;;;21.25;6.43;;;;;;;4.19;100.00;102109.13;5103246;28;20023;-73
2022/11/27 04:10:21;;;;;;;19.83;5.93;;;;;;;4.23;100.00;102111.88;5105287;28;20034;-72
2022/11/27 04:12:46;;;;;;;20.55;5.90;;;;;;;4.29;100.00;102125.28;5102152;28;20028;-72
2022/11/27 04:15:12;;;;;;;23.17;5.93;;;;;;;4.25;100.00;102123.31;5104883;28;20550;-73
2022/11/27 04:17:37;;;;;;;21.08;6.25;;;;;;;4.25;100.00;102123.31;5103323;28;20079;-72
2022/11/27 04:20:03;;;;;;;19.60;5.97;;;;;;;4.24;100.00;102132.00;5104249;28;20028;-71
2022/11/27 04:22:28;;;;;;;20.60;6.05;;;;;;;4.21;100.00;102126.59;5104101;28;20372;-71
2022/11/27 04:24:53;;;;;;;19.10;5.70;;;;;;;4.19;100.00;102132.69;5101703;28;20031;-72
2022/11/27 04:27:19;;;;;;;20.40;5.75;;;;;;;4.22;100.00;102128.41;5105109;28;20035;-71
2022/11/27 04:29:44;;;;;;;19.92;5.63;;;;;;;4.19;100.00;102130.06;5102064;28;20024;-71
2022/11/27 04:32:09;;;;;;;21.65;6.22;;;;;;;4.18;100.00;102116.91;5105057;28;20466;-71
2022/11/27 04:34:35;;;;;;;20.42;6.13;;;;;;;4.18;100.00;102116.91;5101362;28;20449;-72
2022/11/27 04:37:00;;;;;;;20.73;5.63;;;;;;;4.16;100.00;102114.16;5103674;28;20482;-71
2022/11/27 04:39:26;;;;;;;21.40;5.90;;;;;;;4.17;100.00;102112.47;5104259;28;20436;-71
2022/11/27 04:41:51;;;;;;;21.15;6.38;;;;;;;4.16;100.00;102119.41;5100973;28;20035;-72
2022/11/27 04:44:17;;;;;;;20.58;6.05;;;;;;;4.15;100.00;102120.25;5105673;28;20355;-71
2022/11/27 04:46:42;;;;;;;21.38;6.30;;;;;;;4.15;100.00;102115.03;5100470;28;20501;-72
2022/11/27 04:49:08;;;;;;;20.65;6.47;;;;;;;4.15;100.00;102119.34;5104261;28;20028;-72
2022/11/27 04:51:34;;;;;;;20.52;5.85;;;;;;;4.17;100.00;102112.47;5102953;28;20428;-71
2022/11/27 04:53:59;;;;;;;21.15;6.10;;;;;;;4.17;100.00;102102.88;5102912;28;20036;-72
2022/11/27 04:56:24;;;;;;;21.80;6.30;;;;;;;4.14;100.00;102092.28;5103967;28;20088;-71
2022/11/27 04:58:50;;;;;;;20.35;6.07;;;;;;;4.12;100.00;102096.53;5101774;28;20563;-73
2022/11/27 05:01:15;;;;;;;21.98;6.07;;;;;;;4.12;100.00;102093.00;5104769;28;20035;-71
2022/11/27 05:03:41;;;;;;;19.88;5.68;;;;;;;4.12;100.00;102086.06;5101693;28;20081;-71
2022/11/27 05:06:06;;;;;;;21.23;5.95;;;;;;;4.13;100.00;102082.63;5103224;28;20360;-71
2022/11/27 05:08:32;;;;;;;22.13;5.82;;;;;;;4.14;100.00;102079.19;5102893;28;20161;-73
2022/11/27 05:11:10;;;;;;;19.98;5.70;;;;;;;4.14;100.00;102066.09;5102752;28;20039;-73
2022/11/27 05:13:35;;;;;;;21.88;5.90;;;;;;;4.16;100.00;102068.78;5102112;28;20047;-72
2022/11/27 05:16:01;;;;;;;20.30;5.70;;;;;;;4.17;100.00;102074.09;5103281;28;20028;-71
2022/11/27 05:18:27;;;;;;;20.75;5.88;;;;;;;4.18;100.00;102064.56;5103677;28;20024;-72
2022/11/27 05:20:57;;;;;;;19.13;5.30;;;;;;;4.19;100.00;102063.72;5101858;28;20379;-72
2022/11/27 05:23:22;;;;;;;20.75;5.95;;;;;;;4.21;100.00;102058.53;5103906;28;20027;-73
2022/11/27 05:25:48;;;;;;;20.38;6.00;;;;;;;4.22;100.00;102060.34;5101237;28;20494;-72
2022/11/27 05:28:13;;;;;;;20.80;5.85;;;;;;;4.23;100.00;102067.38;5103457;28;20130;-72
2022/11/27 05:30:38;;;;;;;19.85;5.53;;;;;;;4.24;100.00;102058.69;5101683;28;20154;-72
2022/11/27 05:33:03;;;;;;;18.25;5.07;;;;;;;4.25;100.00;102063.13;5103216;28;20025;-71
2022/11/27 05:35:29;;;;;;;20.20;5.50;;;;;;;4.26;100.00;102051.84;5103028;28;20031;-73
2022/11/27 05:37:54;;;;;;;19.23;5.55;;;;;;;4.26;100.00;102047.47;5101684;28;20032;-71
2022/11/27 05:40:19;;;;;;;21.52;5.57;;;;;;;4.27;100.00;102048.41;5103000;28;20035;-73
2022/11/27 05:42:45;;;;;;;20.10;5.55;;;;;;;4.27;100.00;102051.91;5100995;28;20123;-72
2022/11/27 05:45:10;;;;;;;20.25;5.40;;;;;;;4.29;100.00;102041.50;5104034;28;20027;-71
2022/11/27 05:47:35;;;;;;;20.80;5.30;;;;;;;4.29;100.00;102039.78;5101950;28;20020;-71
2022/11/27 05:50:01;;;;;;;21.52;5.70;;;;;;;4.28;100.00;102032.78;5102819;28;20032;-69
2022/11/27 05:52:26;;;;;;;19.85;5.45;;;;;;;4.28;100.00;102032.78;5103228;28;20023;-71
2022/11/27 05:54:53;;;;;;;19.90;5.40;;;;;;;4.29;100.00;102029.31;5101234;28;20039;-71
2022/11/27 05:57:19;;;;;;;19.27;5.40;;;;;;;4.29;100.00;102017.94;5104568;28;20107;-71
2022/11/27 05:59:44;;;;;;;18.17;5.25;;;;;;;4.30;100.00;102017.13;5100686;28;20099;-71
2022/11/27 06:02:09;;;;;;;20.42;5.35;;;;;;;4.30;100.00;102014.50;5103715;28;20154;-72
2022/11/27 06:04:35;;;;;;;19.13;5.47;;;;;;;4.30;100.00;102017.13;5100945;28;20034;-72
2022/11/27 06:07:00;;;;;;;19.50;5.43;;;;;;;4.31;100.00;102018.91;5102448;28;20368;-73
2022/11/27 06:09:25;;;;;;;20.05;5.20;;;;;;;4.34;100.00;102019.09;5103697;28;20015;-72
2022/11/27 06:11:51;;;;;;;18.80;5.13;;;;;;;4.34;100.00;102014.72;5100877;28;20382;-71
2022/11/27 06:14:16;;;;;;;18.98;4.95;;;;;;;4.34;100.00;102013.84;5103824;28;20054;-71
2022/11/27 06:16:41;;;;;;;19.40;5.40;;;;;;;4.34;100.00;102008.59;5103048;28;20067;-71
2022/11/27 06:19:07;;;;;;;20.40;5.30;;;;;;;4.32;100.00;102007.63;5105486;28;20426;-72
2022/11/27 06:21:32;;;;;;;17.90;5.20;;;;;;;4.32;100.00;102015.47;5104728;28;20028;-72
2022/11/27 06:23:57;;;;;;;19.38;5.07;;;;;;;4.32;100.00;102007.63;5104286;28;20108;-71
2022/11/27 06:26:28;;;;;;;18.05;5.00;;;;;;;4.31;100.00;102008.44;5107364;28;20918;-71
2022/11/27 06:28:55;;;;;;;21.15;5.57;;;;;;;4.31;100.00;102008.44;5104863;28;20027;-72
2022/11/27 06:31:24;;;;;;;17.92;4.93;;;;;;;4.29;100.00;102000.50;5107545;28;20466;-72
2022/11/27 06:33:51;;;;;;;19.60;5.32;;;;;;;4.28;100.00;102003.06;5103975;28;20038;-73
2022/11/27 06:36:18;;;;;;;19.52;5.45;;;;;;;4.24;100.00;102001.09;5107573;28;20074;-71
2022/11/27 06:38:44;;;;;;;19.60;5.32;;;;;;;4.19;100.00;102003.50;5104266;28;20412;-71
2022/11/27 06:41:12;;;;;;;18.80;5.38;;;;;;;4.13;100.00;102011.06;5106788;28;20127;-71
2022/11/27 06:43:38;;;;;;;21.05;5.70;;;;;;;4.07;100.00;102009.03;5103404;28;20024;-72
2022/11/27 06:46:04;;;;;;;20.10;5.35;;;;;;;4.01;100.00;102006.13;5105893;28;20074;-71
2022/11/27 06:48:30;;;;;;;19.38;5.53;;;;;;;3.96;100.00;102015.44;5106120;28;20085;-71
2022/11/27 06:51:04;;;;;;;19.73;5.60;;;;;;;3.91;100.00;102011.72;5104809;28;20028;-71
2022/11/27 06:53:30;;;;;;;21.30;5.65;;;;;;;3.88;100.00;102006.34;5105840;28;20463;-72
2022/11/27 06:55:56;;;;;;;19.10;5.45;;;;;;;3.82;100.00;102002.56;5104439;28;20474;-71
2022/11/27 06:58:22;;;;;;;20.70;6.35;;;;;;;3.79;100.00;101989.34;5106694;28;20028;-71
2022/11/27 07:00:48;;;;;;;21.33;6.53;;;;;;;3.76;100.00;101999.66;5103684;28;20081;-73
2022/11/27 07:03:13;;;;;;;21.77;6.53;;;;;;;3.75;100.00;101994.34;5105618;28;20102;-71
2022/11/27 07:05:38;;;;;;;21.10;6.40;;;;;;;3.73;100.00;101988.13;5104254;28;20037;-71
2022/11/27 07:08:04;;;;;;;22.15;6.40;;;;;;;3.70;100.00;101981.06;5085925;28;20130;-71
2022/11/27 07:10:35;;;;;;;23.30;6.68;;;;;;;3.71;100.00;101985.44;5105440;28;20039;-71
2022/11/27 07:13:00;;;;;;;21.83;6.50;;;;;;;3.71;100.00;101974.09;5104698;28;20112;-71
2022/11/27 07:15:26;;;;;;;21.23;6.97;;;;;;;3.71;100.00;101972.34;5105796;28;20089;-71
2022/11/27 07:17:51;;;;;;;21.77;6.60;;;;;;;3.67;100.00;101955.63;5103443;28;20027;-72
2022/11/27 07:20:17;;;;;;;21.52;6.60;;;;;;;3.71;100.00;101955.78;5106646;28;20028;-71
2022/11/27 07:22:42;;;;;;;22.10;6.45;;;;;;;3.70;100.00;101959.22;5103564;28;20032;-71
2022/11/27 07:25:08;;;;;;;22.27;7.13;;;;;;;3.70;100.00;101940.91;5104317;28;20417;-71
2022/11/27 07:27:33;;;;;;;23.55;7.25;;;;;;;3.70;100.00;101944.44;5103967;28;20031;-71
2022/11/27 07:29:58;;;;;;;21.83;6.72;;;;;;;3.71;100.00;101955.78;5104129;28;20029;-78
2022/11/27 07:32:24;;;;;;;21.30;6.82;;;;;;;3.72;100.00;101942.78;5104655;28;20035;-78
2022/11/27 07:34:49;;;;;;;21.83;7.10;;;;;;;3.74;100.00;101933.31;5102757;28;20059;-76
2022/11/27 07:37:14;;;;;;;22.92;7.45;;;;;;;3.74;100.00;101935.94;5105338;28;20027;-78
2022/11/27 07:39:39;;;;;;;22.75;7.18;;;;;;;3.77;100.00;101937.78;5103393;28;20446;-78
2022/11/27 07:42:05;;;;;;;22.50;7.53;;;;;;;3.75;100.00;101929.84;5105032;28;20386;-77
2022/11/27 07:44:30;;;;;;;22.33;7.03;;;;;;;3.77;100.00;101938.69;5104620;28;20359;-78
2022/11/27 07:46:56;;;;;;;23.63;7.72;;;;;;;3.79;100.00;101931.81;5103343;28;20038;-77
2022/11/27 07:49:21;;;;;;;23.10;7.63;;;;;;;3.79;100.00;101928.28;5106126;28;20043;-76
2022/11/27 07:51:46;;;;;;;23.58;7.85;;;;;;;3.79;100.00;101929.19;5102679;28;20471;-77
2022/11/27 07:54:11;;;;;;;23.50;7.95;;;;;;;3.79;100.00;101916.09;5105418;28;20036;-76
2022/11/27 07:56:37;;;;;;;22.27;7.80;;;;;;;3.81;100.00;101911.84;5102527;28;20084;-77
2022/11/27 07:59:02;;;;;;;22.08;7.80;;;;;;;3.86;100.00;101898.09;5102718;28;20063;-77
2022/11/27 08:01:27;;;;;;;22.40;8.50;;;;;;;3.86;100.00;101892.84;5103434;28;20115;-75
2022/11/27 08:03:53;;;;;;;22.50;8.73;;;;;;;3.82;100.00;101895.31;5101803;28;20036;-76
2022/11/27 08:06:23;;;;;;;24.83;9.15;;;;;;;3.86;100.00;101893.78;5105794;28;20024;-77
2022/11/27 08:08:50;;;;;;;23.77;9.18;;;;;;;3.88;100.00;101893.84;5098960;28;20027;-76
2022/11/27 08:11:18;;;;;;;24.27;9.07;;;;;;;3.88;100.00;101896.47;5098327;28;20070;-76
2022/11/27 08:13:43;;;;;;;23.95;9.55;;;;;;;3.89;100.00;101887.75;5105063;28;20020;-74
2022/11/27 08:16:09;;;;;;;24.55;9.30;;;;;;;3.91;100.00;101893.97;5102903;28;20034;-73
2022/11/27 08:18:34;;;;;;;24.83;9.32;;;;;;;3.91;100.00;101896.59;5104222;28;20027;-77
2022/11/27 08:20:59;;;;;;;25.65;9.98;;;;;;;3.96;100.00;101889.84;5104285;28;20032;-77
2022/11/27 08:23:25;;;;;;;25.17;9.93;;;;;;;3.96;100.00;101884.63;5102731;28;20510;-76
2022/11/27 08:25:50;;;;;;;25.48;10.20;;;;;;;3.99;100.00;101890.00;5105717;28;20123;-75
2022/11/27 08:28:15;;;;;;;25.05;9.90;;;;;;;4.01;100.00;101890.97;5097690;28;20032;-75
2022/11/27 08:30:41;;;;;;;24.45;9.90;;;;;;;4.03;100.00;101883.22;5105094;28;20027;-74
2022/11/27 08:33:06;;;;;;;25.00;10.02;;;;;;;4.07;100.00;101887.78;5103108;28;20020;-74
2022/11/27 08:35:32;;;;;;;24.90;9.90;;;;;;;4.10;100.00;101882.69;5103218;28;20038;-75
2022/11/27 08:37:57;;;;;;;23.42;9.70;;;;;;;4.11;100.00;101895.84;5104415;28;20027;-75
2022/11/27 08:40:23;;;;;;;23.80;9.63;;;;;;;4.15;100.00;101889.94;5101045;28;20398;-75
2022/11/27 08:42:48;;;;;;;24.48;9.70;;;;;;;4.18;100.00;101897.91;5105073;28;20020;-75
2022/11/27 08:45:14;;;;;;;23.83;9.68;;;;;;;4.19;100.00;101894.47;5102079;28;20032;-76
2022/11/27 08:47:39;;;;;;;24.23;9.70;;;;;;;4.24;100.00;101881.59;5104074;28;20079;-77
2022/11/27 08:50:05;;;;;;;24.63;9.95;;;;;;;4.26;100.00;101884.28;5103075;28;20453;-76
2022/11/27 08:52:31;;;;;;;23.67;10.13;;;;;;;4.29;100.00;101879.19;5101809;28;20089;-77
2022/11/27 08:54:57;;;;;;;23.85;10.05;;;;;;;4.30;100.00;101889.75;5102777;28;20032;-76
2022/11/27 08:57:22;;;;;;;25.17;10.90;;;;;;;4.35;100.00;101893.47;5101575;28;20030;-76
2022/11/27 08:59:47;;;;;;;26.00;10.82;;;;;;;4.38;100.00;101891.81;5105025;28;20526;-76
2022/11/27 09:02:13;;;;;;;25.15;10.40;;;;;;;4.37;100.00;101901.41;5101658;28;20031;-77
2022/11/27 09:04:38;;;;;;;25.35;11.18;;;;;;;4.40;100.00;101892.78;5103747;28;20390;-75
2022/11/27 09:07:03;;;;;;;26.45;11.15;;;;;;;4.40;100.00;101893.69;5103202;28;20038;-77
2022/11/27 09:09:29;;;;;;;25.40;10.73;;;;;;;4.42;100.00;101894.63;5102447;28;20364;-76
2022/11/27 09:11:54;;;;;;;25.23;11.32;;;;;;;4.43;100.00;101896.44;5104494;28;20420;-77
2022/11/27 09:14:20;;;;;;;24.83;11.35;;;;;;;4.47;100.00;101889.59;5100961;28;20490;-77
2022/11/27 09:16:45;;;;;;;24.77;11.25;;;;;;;4.50;100.00;101885.44;5104664;28;20459;-76
2022/11/27 09:19:10;;;;;;;25.80;11.32;;;;;;;4.51;100.00;101891.56;5102100;28;20043;-76
2022/11/27 09:21:37;;;;;;;25.42;11.43;;;;;;;4.51;100.00;101891.56;5103628;28;20024;-77
2022/11/27 09:24:03;;;;;;;26.33;11.50;;;;;;;4.51;100.00;101892.47;5103028;28;20070;-77
2022/11/27 09:26:29;;;;;;;26.70;11.63;;;;;;;4.53;100.00;101885.56;5101026;28;20051;-77
2022/11/27 09:28:57;;;;;;;26.90;11.88;;;;;;;4.53;100.00;101888.19;5104259;28;20031;-77
2022/11/27 09:31:22;;;;;;;26.50;12.45;;;;;;;4.54;100.00;101887.38;5101411;28;20103;-77
2022/11/27 09:33:48;;;;;;;26.85;11.82;;;;;;;4.57;100.00;101890.94;5104711;28;20208;-77
2022/11/27 09:36:19;;;;;;;27.63;12.73;;;;;;;4.59;100.00;101899.75;5099999;28;20031;-77
2022/11/27 09:38:45;;;;;;;25.90;11.98;;;;;;;4.63;100.00;101891.22;5104441;28;20352;-78
2022/11/27 09:41:10;;;;;;;27.38;12.50;;;;;;;4.64;100.00;101887.78;5102135;28;20035;-77
2022/11/27 09:43:44;;;;;;;27.38;12.73;;;;;;;4.64;100.00;101879.91;5102868;28;20440;-77
2022/11/27 09:46:16;;;;;;;27.63;12.77;;;;;;;4.67;100.00;101887.91;5101913;28;20028;-76
2022/11/27 09:48:45;;;;;;;25.77;12.43;;;;;;;4.67;100.00;101880.03;5103588;28;20100;-77
2022/11/27 09:51:28;;;;;;;27.55;12.52;;;;;;;4.68;100.00;101882.72;5098535;28;20386;-78
2022/11/27 09:54:06;;;;;;;26.77;13.15;;;;;;;4.70;100.00;101878.47;5101958;28;20020;-77
2022/11/27 09:56:35;;;;;;;27.52;12.88;;;;;;;4.75;100.00;101867.28;5106886;27;20024;-77
2022/11/27 09:59:01;;;;;;;28.73;13.38;;;;;;;4.76;100.00;101867.38;5104503;28;20034;-77
2022/11/27 10:01:31;;;;;;;25.35;12.48;;;;;;;4.78;100.00;101863.09;5107486;28;20466;-72
2022/11/27 10:03:59;;;;;;;26.98;13.23;;;;;;;4.80;100.00;101861.41;5105546;28;20034;-73
2022/11/27 10:06:33;;;;;;;26.30;12.60;;;;;;;4.82;100.00;101861.50;5107600;28;20032;-72
2022/11/27 10:09:11;;;;;;;29.75;12.90;;;;;;;4.83;100.00;101858.03;5105388;28;20028;-72
2022/11/27 10:11:58;;;;;;;26.33;13.02;;;;;;;4.85;100.00;101852.06;5105840;28;20030;-72
2022/11/27 10:15:21;;;;;;;27.63;13.07;;;;;;;4.90;100.00;101849.63;5091574;28;20112;-75
2022/11/27 10:17:57;;;;;;;27.27;13.02;;;;;;;4.92;100.00;101840.09;5014941;28;20083;-76
2022/11/27 10:20:32;;;;;;;28.33;13.18;;;;;;;4.98;100.00;101839.47;5018461;28;20041;-78
2022/11/27 10:23:03;;;;;;;27.33;12.52;;;;;;;5.00;100.00;101829.97;5069363;28;20027;-71
2022/11/27 10:25:40;;;;;;;26.15;12.48;;;;;;;5.03;100.00;101822.22;5104430;28;20053;-70
2022/11/27 10:28:42;;;;;;;26.48;12.85;;;;;;;5.07;100.00;101821.53;5100736;28;20060;-68
2022/11/27 10:31:15;;;;;;;27.50;12.45;;;;;;;5.14;100.00;101828.84;5103863;28;20038;-68
2022/11/27 10:33:49;;;;;;;26.30;12.30;;;;;;;5.18;100.00;101828.09;5103481;28;20024;-67
2022/11/27 10:36:28;;;;;;;26.08;12.50;;;;;;;5.13;100.00;101816.53;5106240;28;20067;-71
2022/11/27 10:38:56;;;;;;;26.25;12.68;;;;;;;5.16;100.00;101806.19;5107670;28;20020;-70
2022/11/27 10:41:28;;;;;;;33.38;12.88;;;;;;;5.17;100.00;101800.13;5102975;28;20032;-71
2022/11/27 10:43:58;;;;;;;27.10;12.60;;;;;;;5.20;100.00;101800.25;5099716;28;20028;-69
2022/11/27 10:46:28;;;;;;;26.30;12.60;;;;;;;5.22;100.00;101789.81;5107203;28;20032;-69
2022/11/27 10:48:54;;;;;;;24.52;11.68;;;;;;;5.19;100.00;101795.81;5103925;28;20020;-70
2022/11/27 10:51:35;;;;;;;25.27;11.82;;;;;;;5.21;100.00;101793.25;5106515;28;20119;-69
2022/11/27 10:54:04;;;;;;;26.65;12.60;;;;;;;5.25;100.00;101795.19;5099361;28;20479;-70
2022/11/27 10:57:07;;;;;;;24.95;11.98;;;;;;;5.22;100.00;101790.69;5107217;28;20023;-72
2022/11/27 10:59:36;;;;;;;24.33;11.65;;;;;;;5.27;100.00;101787.38;5100978;28;20023;-70
2022/11/27 11:02:04;;;;;;;25.63;12.15;;;;;;;5.29;100.00;101783.13;5106320;28;20020;-69
2022/11/27 11:04:30;;;;;;;25.90;12.00;;;;;;;5.32;100.00;101780.63;5102829;28;20028;-71
2022/11/27 11:06:57;;;;;;;24.65;11.85;;;;;;;5.35;100.00;101765.00;5107120;28;20019;-71
2022/11/27 11:09:26;;;;;;;25.65;11.98;;;;;;;5.38;100.00;101763.38;5103626;28;20033;-71
2022/11/27 11:11:52;;;;;;;26.13;12.05;;;;;;;5.41;100.00;101774.00;5106741;28;20032;-69
2022/11/27 11:14:23;;;;;;;24.60;11.50;;;;;;;5.43;100.00;101766.19;5104229;28;20058;-70
2022/11/27 11:16:50;;;;;;;24.33;11.43;;;;;;;5.47;100.00;101749.75;5106272;28;20422;-70
2022/11/27 11:19:23;;;;;;;24.13;10.88;;;;;;;5.48;100.00;101750.66;5104546;28;20023;-73
2022/11/27 11:21:49;;;;;;;24.30;11.38;;;;;;;5.46;100.00;101747.97;5106124;28;20421;-73
2022/11/27 11:24:20;;;;;;;23.70;11.10;;;;;;;5.49;100.00;101749.78;5104474;27;20077;-77